Coquille, OR (97423)

2:47 AM PDT on September 20, 2014 (GMT -0700)
Coquille, E. 7th Street, | Change Station
CLOSE
Current Station
Personal Weather Station
Location: Coquille, OR
Elevation: 121 ft
Nearby Weather Stations

Elev 121 ft 43.18 °N, 124.18 °W | Updated 3 minutes ago

Clear
Clear
53.1 °F
Feels Like 53.1 °F
N
0.0
Wind Variable Wind from East

Today
High -- | Low -- °F
--% Chance of Precip.
Yesterday
High -- | Low -- °F
Precip. -- in
7:02 AM 7:17 PM
Waning Crescent, 13% visible
Pressure 29.96 in
Visibility 5.0 miles
Clouds Clear
Dew Point 46 °F
Humidity 78%
Rainfall 0.00 in
Snow Depth 0 in , 0 in , 0 in
UV 0 out of 12
Pollen 1.80 out of 12
Air Quality Not available.
Flu Activity Not available.
METAR KOTH 200935Z 00000KT 5SM CLR 13/13 A2996 RMK AO1

More Conditions Fewer Conditions

Pressure 29.96 in
Visibility 5.0 miles
Clouds Clear
Dew Point 46 °F
Humidity 78%
Rainfall 0.00 in
Snow Depth 0 in , 0 in , 0 in
UV 0 out of 12
Pollen 1.80 out of 12
Air Quality Not available.
Flu Activity Not available.
METAR KOTH 200935Z 00000KT 5SM CLR 13/13 A2996 RMK AO1

More Conditions Fewer Conditions

10-Day Weather Forecast

Almanac

Astronomy

Sep. 20, 2014 Rise Set
Actual Time 7:02 AM PDT 7:17 PM PDT
Civil Twilight 6:33 AM PDT 7:45 PM PDT
Nautical Twilight 6:00 AM PDT 8:19 PM PDT
Astronomical Twilight 5:25 AM PDT 8:53 PM PDT
Moon 3:42 AM PDT 5:27 PM PDT
Length of Visible Light 13h 12m
Length of Day
12h 15m
Tomorrow will be 2m 54s shorter.
Waning Crescent, 13% of the Moon is Illuminated
Today
Waning Crescent
Sep 24
New
Oct 1
First Quarter
Oct 8
Full
Oct 15
Last Quarter

Today's Extremes

State Highs State Lows

Community

WunderPhotos

Upload Photos

1,754,794 photos uploaded!

WunderBlogs® & News

Nearby

Snow Depth

Station Depth Elevation
Roaring River 0 in 4900 ft
Fish Creek 0 in 7900 ft
Salt Creek Falls 0 in 4000 ft
Cold Springs Camp 0 in 6100 ft
Blue Mountain Spring 0 in 5900 ft

Earthquake Activity

City Distance Mag. Time & Date
No recent earthquake activity has been reported nearby.
Minimum magnitude displayed is 2.5.

Coastal Water Temperatures

Place Temperature
Port Orford, OR 54.0 °F
Charleston, OR 55.0 °F
South Beach, OR 57.0 °F

Nearby Weather Stations